Flight Track Log - Related Links

Times and Time Zones

All times are in EDT time to prevent confusion due to time zone crossing. See the B-18725 flight status page for this flight to view local times or setup timezone preferences in your user account.

Time Position Orientation Groundspeed Altitude Reporting Facility
EDT Latitude Longitude Course Direction KTS MPH feet Rate Location/Type
Wed 06:01:17 PM 47.6190 -122.4590 276° West 284 327 9,400  Level FlightAware ADS-B
Wed 06:01:57 PM 47.6240 -122.5430 275° West 328 377 11,100 2,259 Climbing FlightAware ADS-B
Wed 06:02:42 PM 47.6300 -122.6520 275° West 381 438 12,600 2,682 Climbing FlightAware ADS-B
Wed 06:03:22 PM 47.6360 -122.7620 275° West 398 458 14,900 3,300 Climbing FlightAware ADS-B
Wed 06:04:02 PM 47.6420 -122.8690 275° West 406 467 17,000 3,106 Climbing FlightAware ADS-B
Wed 06:04:47 PM 47.6720 -122.9890 290° West 410 472 19,300 2,965 Climbing FlightAware ADS-B
Wed 06:05:27 PM 47.7110 -123.0870 301° West 416 479 21,200 2,753 Climbing FlightAware ADS-B
Wed 06:06:12 PM 47.7560 -123.1990 301° West 426 490 23,200 2,541 Climbing FlightAware ADS-B
Wed 06:06:52 PM 47.7970 -123.3040 300° West 435 501 24,800 2,329 Climbing FlightAware ADS-B
Wed 06:07:37 PM 47.8420 -123.4190 300° West 448 516 26,500 2,259 Climbing FlightAware ADS-B
Wed 06:08:17 PM 47.8850 -123.5310 300° West 456 525 28,000 2,475 Climbing FlightAware ADS-B
Wed 06:08:57 PM 47.9260 -123.6370 300° West 452 520 29,800 2,824 Climbing FlightAware ADS-B
Wed 06:09:42 PM 47.9720 -123.7580 300° West 432 497 32,000 2,682 Climbing FlightAware ADS-B
Wed 06:10:22 PM 48.0120 -123.8630 300° West 430 495 33,600 2,100 Climbing FlightAware ADS-B
Wed 06:11:02 PM 48.0510 -123.9640 300° West 426 490 34,800 1,694 Climbing FlightAware ADS-B
Wed 06:11:47 PM 48.0950 -124.0790 300° West 420 483 36,000 847 Climbing FlightAware ADS-B
Wed 06:12:27 PM 48.1320 -124.1780 299° West 416 479 36,000  Level FlightAware ADS-B
Wed 06:13:12 PM 48.1750 -124.2920 300° West 413 475 36,000  Level FlightAware ADS-B
Wed 06:13:52 PM 48.2130 -124.3920 300° West 412 474 36,000  Level FlightAware ADS-B
Wed 06:14:37 PM 48.2550 -124.5050 299° West 410 472 36,000  Level FlightAware ADS-B
Wed 06:15:17 PM 48.2940 -124.6050 300° West 411 473 36,000  Level FlightAware ADS-B
Wed 06:15:57 PM 48.3510 -124.6780 320° Northwest 415 478 36,000  Level FlightAware ADS-B
Wed 06:16:42 PM 48.4220 -124.7600 323° Northwest 421 484 36,000  Level FlightAware ADS-B
Wed 06:17:22 PM 48.4840 -124.8290 324° Northwest 421 484 36,000  Level FlightAware ADS-B
Wed 06:18:07 PM 48.5550 -124.9050 325° Northwest 416 479 36,000  Level FlightAware ADS-B
Wed 06:18:47 PM 48.6200 -124.9750 325° Northwest 421 484 36,000  Level FlightAware ADS-B
Wed 06:19:27 PM 48.6820 -125.0430 324° Northwest 422 486 36,000  Level FlightAware ADS-B
Wed 06:20:12 PM 48.7540 -125.1230 324° Northwest 422 486 36,000  Level FlightAware ADS-B
Wed 06:20:42 PM 48.8010 -125.1750 324° Northwest 423 487 36,000  Level FlightAware ADS-B
Wed 06:21:47 PM 48.9040 -125.2900 324° Northwest 424 488 36,000  Level FlightAware ADS-B
Wed 06:22:57 PM 49.0150 -125.4130 324° Northwest 419 482 36,000  Level FlightAware ADS-B
Wed 06:24:07 PM 49.1250 -125.5360 324° Northwest 422 486 36,000  Level FlightAware ADS-B
Wed 06:24:52 PM 49.2000 -125.6210 323° Northwest 429 494 36,000  Level FlightAware ADS-B
Wed 06:25:32 PM 49.2620 -125.6920 323° Northwest 430 495 36,000  Level FlightAware ADS-B
Wed 06:26:02 PM 49.3080 -125.7440 324° Northwest 430 495 36,000  Level FlightAware ADS-B
Wed 06:26:42 PM 49.3750 -125.8200 324° Northwest 429 494 36,000  Level FlightAware ADS-B
Wed 06:27:27 PM 49.4440 -125.8980 324° Northwest 427 491 36,000  Level FlightAware ADS-B
Wed 06:28:02 PM 49.5010 -125.9630 323° Northwest 426 490 36,000  Level FlightAware ADS-B
Wed 06:28:47 PM 49.5620 -126.0350 323° Northwest 426 490 36,000  Level FlightAware ADS-B
Wed 06:29:32 PM 49.6420 -126.1270 323° Northwest 425 489 36,000  Level FlightAware ADS-B
Wed 06:30:12 PM 49.7050 -126.1990 324° Northwest 426 490 36,000  Level FlightAware ADS-B
Wed 06:30:57 PM 49.7740 -126.2800 323° Northwest 426 490 36,000  Level FlightAware ADS-B
Wed 06:31:22 PM 49.8150 -126.3270 324° Northwest 427 491 36,000  Level FlightAware ADS-B
Wed 06:32:07 PM 49.8820 -126.4060 323° Northwest 427 491 36,000  Level FlightAware ADS-B
Wed 06:32:47 PM 49.9480 -126.4830 323° Northwest 427 491 36,000  Level FlightAware ADS-B
Wed 06:33:27 PM 50.0110 -126.5580 323° Northwest 428 493 36,000  Level FlightAware ADS-B
Wed 06:34:02 PM 50.0630 -126.6190 323° Northwest 428 493 36,000  Level FlightAware ADS-B
Wed 06:34:47 PM 50.1350 -126.7040 323° Northwest 428 493 36,000  Level FlightAware ADS-B
Wed 06:35:27 PM 50.1960 -126.7760 323° Northwest 428 493 36,000  Level FlightAware ADS-B
Wed 06:36:17 PM 50.2790 -126.8750 323° Northwest 428 493 36,000  Level FlightAware ADS-B
Wed 06:36:57 PM 50.3410 -126.9490 323° Northwest 429 494 36,000  Level FlightAware ADS-B
Wed 06:37:42 PM 50.4060 -127.0280 322° Northwest 430 495 36,000  Level FlightAware ADS-B
Wed 06:38:17 PM 50.4670 -127.1010 323° Northwest 430 495 36,000  Level FlightAware ADS-B
Wed 06:39:02 PM 50.5270 -127.1750 322° Northwest 430 495 36,000  Level FlightAware ADS-B
Wed 06:39:42 PM 50.5800 -127.2400 322° Northwest 430 495 36,000  Level FlightAware ADS-B
Wed 06:40:22 PM 50.6330 -127.3060 322° Northwest 430 495 36,000  Level FlightAware ADS-B
Wed 06:41:02 PM 50.6870 -127.3720 322° Northwest 430 495 36,000  Level FlightAware ADS-B
Wed 06:41:42 PM 50.7400 -127.4370 322° Northwest 430 495 36,000  Level FlightAware ADS-B
Wed 06:42:22 PM 50.7930 -127.5030 322° Northwest 430 495 36,000  Level FlightAware ADS-B
Wed 06:43:02 PM 50.8470 -127.5690 322° Northwest 430 495 36,000  Level FlightAware ADS-B
Wed 06:43:52 PM 50.9130 -127.6520 322° Northwest 430 495 36,000  Level FlightAware ADS-B
Wed 06:44:32 PM 50.9670 -127.7180 322° Northwest 430 495 36,000  Level FlightAware ADS-B
Wed 06:45:12 PM 51.0200 -127.7840 322° Northwest 430 495 36,000  Level FlightAware ADS-B
Wed 06:45:52 PM 51.0730 -127.8500 322° Northwest 430 495 36,000  Level FlightAware ADS-B
Wed 06:46:32 PM 51.1260 -127.9170 322° Northwest 430 495 36,000  Level FlightAware ADS-B
Wed 06:47:22 PM 51.1930 -128.0000 322° Northwest 430 495 36,000  Level FlightAware ADS-B
Wed 06:48:02 PM 51.2460 -128.0660 322° Northwest 430 495 36,000  Level FlightAware ADS-B
Wed 06:49:01 PM 51.3667 -128.5000 322° Northwest 430 495 36,000  Level Vancouver Center
Wed 06:50:01 PM 51.4500 -128.6500 312° West 430 495 36,000  Level Vancouver Center
Wed 06:51:01 PM 51.5333 -128.8000 312° West 430 495 36,000  Level Vancouver Center
Wed 06:52:01 PM 51.6167 -128.9333 315° West 430 495 36,000  Level Vancouver Center
Wed 06:53:01 PM 51.7000 -129.0833 312° West 430 495 36,000  Level Vancouver Center
Wed 06:54:01 PM 51.7667 -129.2000 313° West 420 483 36,000  Level Vancouver Center
Wed 06:55:01 PM 51.8667 -129.3500 317° Northwest 420 483 36,000  Level Vancouver Center
Wed 06:56:01 PM 51.9333 -129.4833 309° West 420 483 36,000  Level Vancouver Center
Wed 06:57:01 PM 52.0167 -129.6000 319° Northwest 420 483 36,000  Level Vancouver Center
Wed 06:58:01 PM 52.1000 -129.7500 312° West 430 495 36,000  Level Vancouver Center
Wed 06:59:01 PM 52.1833 -129.9000 312° West 430 495 36,000  Level Vancouver Center
Wed 07:00:01 PM 52.2667 -130.0500 312° West 430 495 36,000  Level Vancouver Center
Wed 07:01:01 PM 52.3333 -130.2000 306° West 430 495 36,000  Level Vancouver Center
Wed 07:02:01 PM 52.4167 -130.3167 320° Northwest 430 495 36,000  Level Vancouver Center
Wed 07:03:01 PM 52.5167 -130.4667 318° Northwest 430 495 36,000  Level Vancouver Center
Wed 07:04:01 PM 52.5833 -130.6167 306° West 430 495 36,000  Level Vancouver Center
Wed 07:05:01 PM 52.6667 -130.7667 313° West 430 495 36,000  Level Vancouver Center
Wed 07:06:01 PM 52.7500 -130.9167 313° West 430 495 36,000  Level Vancouver Center
Wed 07:07:01 PM 52.8333 -131.0500 316° Northwest 430 495 36,000  Level Vancouver Center
Wed 07:08:01 PM 52.9000 -131.2000 306° West 420 483 36,000  Level Vancouver Center
Wed 07:09:01 PM 52.9833 -131.3500 313° West 420 483 36,000  Level Vancouver Center
Wed 07:10:01 PM 53.0500 -131.5000 307° West 430 495 36,000  Level Vancouver Center
Wed 07:11:01 PM 53.1333 -131.6500 313° West 430 495 36,000  Level Vancouver Center
Wed 07:12:01 PM 53.2167 -131.8000 313° West 430 495 36,000  Level Vancouver Center
Wed 07:13:01 PM 53.2833 -131.9333 310° West 430 495 36,000  Level Vancouver Center
Wed 07:14:01 PM 53.3833 -132.0833 318° Northwest 430 495 36,000  Level Vancouver Center
Wed 07:15:01 PM 53.4500 -132.2500 304° West 430 495 36,000  Level Vancouver Center
Wed 07:16:01 PM 53.5333 -132.3667 320° Northwest 430 495 36,000  Level Vancouver Center
Wed 07:17:01 PM 53.6167 -132.5333 310° West 430 495 36,000  Level Vancouver Center
Wed 07:18:01 PM 53.6833 -132.6833 307° West 430 495 36,000  Level Vancouver Center
Wed 07:19:01 PM 53.7667 -132.8167 317° Northwest 420 483 36,000  Level Vancouver Center
Wed 07:20:01 PM 53.8500 -132.9833 310° West 420 483 36,000  Level Vancouver Center
Wed 07:21:01 PM 53.9333 -133.1333 313° West 420 483 36,000  Level Vancouver Center
Wed 07:22:01 PM 54.0000 -133.2667 310° West 420 483 36,000  Level Vancouver Center
Wed 07:23:01 PM 54.0833 -133.4333 310° West 430 495 36,000  Level Vancouver Center
Wed 07:23:49 PM 54.1500 -133.5000 330° Northwest 420 483 36,000  Level Anchorage Center
Wed 07:24:49 PM 54.2333 -133.6500 314° West 430 495 36,000  Level Anchorage Center
Wed 07:25:49 PM 54.3000 -133.8167 304° West 430 495 36,000  Level Anchorage Center
Wed 07:26:49 PM 54.3833 -133.9500 317° Northwest 430 495 36,000  Level Anchorage Center
Wed 07:27:50 PM 54.4667 -134.1167 311° West 440 506 36,000  Level Anchorage Center
Wed 07:28:50 PM 54.5500 -134.2667 314° West 440 506 36,000  Level Anchorage Center
Wed 07:29:50 PM 54.6167 -134.4167 308° West 440 506 36,000  Level Anchorage Center
Wed 07:30:50 PM 54.7000 -134.5667 314° West 440 506 36,000  Level Anchorage Center
Wed 07:31:50 PM 54.7833 -134.7167 314° West 440 506 36,000  Level Anchorage Center
Wed 07:32:50 PM 54.8667 -134.8833 311° West 440 506 36,000  Level Anchorage Center
Wed 07:33:50 PM 54.9500 -135.0500 311° West 440 506 36,000  Level Anchorage Center
Wed 07:34:50 PM 55.0333 -135.2000 314° West 440 506 36,000  Level Anchorage Center
Wed 07:35:51 PM 55.1167 -135.3667 311° West 440 506 36,000  Level Anchorage Center
Wed 07:36:51 PM 55.1833 -135.5333 305° West 440 506 36,000  Level Anchorage Center
Wed 07:37:51 PM 55.2667 -135.6833 314° West 440 506 36,000  Level Anchorage Center
Wed 07:38:51 PM 55.3500 -135.8500 311° West 440 506 36,000  Level Anchorage Center
Wed 07:39:51 PM 55.4333 -136.0167 311° West 440 506 36,000  Level Anchorage Center
Wed 07:40:51 PM 55.5000 -136.1667 308° West 430 495 36,000  Level Anchorage Center
Wed 07:41:51 PM 55.5833 -136.3333 312° West 430 495 36,000  Level Anchorage Center
Wed 07:42:51 PM 55.6667 -136.5000 312° West 430 495 36,000  Level Anchorage Center
Wed 07:43:51 PM 55.7333 -136.6667 305° West 430 495 36,000  Level Anchorage Center
Wed 07:44:51 PM 55.8167 -136.8333 312° West 420 483 36,000  Level Anchorage Center
Wed 07:45:51 PM 55.8833 -137.0000 306° West 430 495 36,000  Level Anchorage Center
Wed 07:46:52 PM 55.9667 -137.1667 312° West 430 495 36,000  Level Anchorage Center
Wed 07:47:52 PM 56.0333 -137.3333 306° West 420 483 36,000  Level Anchorage Center
Wed 07:48:52 PM 56.1167 -137.5000 312° West 430 495 36,000  Level Anchorage Center
Wed 07:49:52 PM 56.2000 -137.6667 312° West 430 495 36,000  Level Anchorage Center
Wed 07:50:52 PM 56.2667 -137.8333 306° West 430 495 36,000  Level Anchorage Center
Wed 07:51:52 PM 56.3500 -138.0000 312° West 430 495 36,000  Level Anchorage Center
Wed 07:52:52 PM 56.4167 -138.1667 306° West 430 495 36,000  Level Anchorage Center
Wed 07:53:52 PM 56.5000 -138.3333 312° West 430 495 36,000  Level Anchorage Center
Wed 07:54:53 PM 56.5667 -138.5000 306° West 440 506 36,000  Level Anchorage Center
Wed 07:55:53 PM 56.6333 -138.6833 304° West 440 506 36,000  Level Anchorage Center
Wed 07:56:52 PM 56.7167 -138.8667 310° West 440 506 36,000  Level Anchorage Center
Wed 07:57:53 PM 56.8000 -139.0333 312° West 450 518 36,000  Level Anchorage Center
Wed 07:58:53 PM 56.8667 -139.2167 304° West 440 506 36,000  Level Anchorage Center
Wed 07:59:53 PM 56.9500 -139.4000 310° West 450 518 36,000  Level Anchorage Center
Wed 08:00:53 PM 57.0167 -139.5833 304° West 450 518 36,000  Level Anchorage Center
Wed 08:01:53 PM 57.1000 -139.7667 310° West 450 518 36,000  Level Anchorage Center
Wed 08:02:53 PM 57.1667 -139.9167 309° West 450 518 36,000  Level Anchorage Center
Wed 08:03:54 PM 57.2333 -140.1167 302° West 460 529 36,000  Level Anchorage Center
Wed 08:04:53 PM 57.3167 -140.3000 310° West 440 506 36,000  Level Anchorage Center
Wed 08:05:54 PM 57.3833 -140.4833 304° West 450 518 36,000  Level Anchorage Center
Wed 08:06:54 PM 57.4667 -140.6667 310° West 440 506 36,000  Level Anchorage Center
Wed 08:07:54 PM 57.5333 -140.8500 304° West 450 518 36,000  Level Anchorage Center
Wed 08:08:54 PM 57.6167 -141.0500 308° West 450 518 36,000  Level Anchorage Center
Wed 08:09:54 PM 57.6833 -141.2333 304° West 450 518 36,000  Level Anchorage Center
Wed 08:10:54 PM 57.7667 -141.4333 308° West 460 529 36,000  Level Anchorage Center
Wed 08:11:54 PM 57.8333 -141.6333 302° West 460 529 36,000  Level Anchorage Center
Wed 08:12:54 PM 57.9167 -141.8333 308° West 460 529 36,000  Level Anchorage Center
Wed 08:13:55 PM 57.9833 -142.0333 302° West 460 529 36,000  Level Anchorage Center
Wed 08:14:54 PM 58.0500 -142.2333 302° West 460 529 36,000  Level Anchorage Center
Wed 08:15:55 PM 58.1333 -142.4333 308° West 470 541 36,000  Level Anchorage Center
Wed 08:16:55 PM 58.2000 -142.6333 302° West 460 529 36,000  Level Anchorage Center
Wed 08:17:55 PM 58.2833 -142.8500 306° West 460 529 36,000  Level Anchorage Center
Wed 08:18:55 PM 58.3500 -143.0333 305° West 450 518 36,000  Level Anchorage Center
Wed 08:19:55 PM 58.4167 -143.2500 301° West 460 529 36,000  Level Anchorage Center
Wed 08:20:55 PM 58.4833 -143.4500 303° West 460 529 36,000  Level Anchorage Center
Wed 08:21:55 PM 58.5500 -143.6500 303° West 450 518 36,000  Level Anchorage Center
Wed 08:22:55 PM 58.6333 -143.8667 307° West 460 529 36,000  Level Anchorage Center
Wed 08:24:00 PM 58.6998 -144.0707 302° West  Level FlightAware Approximate
Wed 08:24:56 PM 58.7667 -144.2667 302° West 450 518 36,000  Level Anchorage Center
Wed 08:25:55 PM 58.8333 -144.4833 301° West 450 518 36,000  Level Anchorage Center
Wed 08:26:56 PM 58.9000 -144.6833 303° West 450 518 36,000  Level Anchorage Center
Wed 08:28:00 PM 58.9632 -144.8884 301° West  Level FlightAware Approximate
Wed 08:28:56 PM 59.0333 -145.1000 301° West 450 518 36,000  Level Anchorage Center
Wed 08:29:56 PM 59.1000 -145.3000 303° West 440 506 36,000  Level Anchorage Center
Wed 08:30:56 PM 59.1667 -145.5167 301° West 450 518 36,000  Level Anchorage Center
Wed 08:31:56 PM 59.2333 -145.7167 303° West 440 506 36,000  Level Anchorage Center
Wed 08:32:56 PM 59.2833 -145.9333 294° West 440 506 36,000  Level Anchorage Center
Wed 08:33:56 PM 59.3500 -146.1500 301° West 450 518 36,000  Level Anchorage Center
Wed 08:34:57 PM 59.4167 -146.3500 303° West 420 483 36,000 -545 Level Anchorage Center
Wed 08:35:57 PM 59.5000 -146.4833 321° Northwest 420 483 34,900 -1,250 Descending Anchorage Center
Wed 08:36:57 PM 59.6333 -146.6333 330° Northwest 440 506 33,500 -1,250 Descending Anchorage Center
Wed 08:37:57 PM 59.7333 -146.7667 326° Northwest 430 495 32,400 -1,100 Descending Anchorage Center
Wed 08:38:57 PM 59.8333 -146.9000 326° Northwest 420 483 31,300 -1,150 Descending Anchorage Center
Wed 08:39:57 PM 59.9167 -147.0333 321° Northwest 410 472 30,100 -1,150 Descending Anchorage Center
Wed 08:40:57 PM 60.0167 -147.1667 326° Northwest 410 472 29,000 -1,100 Descending Anchorage Center
Wed 08:41:57 PM 60.1167 -147.3000 326° Northwest 400 460 27,900 -1,050 Descending Anchorage Center
Wed 08:42:57 PM 60.2000 -147.4333 322° Northwest 390 449 26,900 -1,050 Descending Anchorage Center
Wed 08:43:57 PM 60.2833 -147.5500 325° Northwest 390 449 25,800 -1,005 Descending Anchorage Center
Wed 08:49:37 PM 60.7470 -148.2720 325° Northwest 344 396 20,200 -957 Descending FlightAware ADS-B
Wed 08:50:32 PM 60.7730 -148.4460 287° West 341 392 19,500 -1,071 Descending FlightAware ADS-B
Wed 08:51:57 PM 60.8110 -148.7130 286° West 331 381 17,700 -1,200 Descending FlightAware ADS-B
Wed 08:53:12 PM 60.8430 -148.9270 287° West 319 367 16,300 -1,200 Descending FlightAware ADS-B
Wed 08:54:02 PM 60.8660 -149.0860 287° West 321 369 15,200 -1,200 Descending FlightAware ADS-B
Wed 08:54:47 PM 60.8850 -149.2160 287° West 321 369 14,400 -1,350 Descending FlightAware ADS-B
Wed 08:55:22 PM 60.9040 -149.3130 292° West 322 371 13,400 -1,650 Descending FlightAware ADS-B
Wed 08:56:07 PM 60.9310 -149.4360 294° West 318 366 12,200 -1,624 Descending FlightAware ADS-B
Wed 08:56:47 PM 60.9530 -149.5400 294° West 315 362 11,100 -1,129 Descending FlightAware ADS-B
Wed 08:57:32 PM 60.9770 -149.6580 293° West 297 342 10,600 -667 Descending FlightAware ADS-B
Wed 08:58:17 PM 61.0040 -149.7650 298° West 269 310 10,100 -923 Descending FlightAware ADS-B
Wed 08:58:37 PM 61.0240 -149.8010 319° Northwest 270 311 9,600 -1,309 Descending FlightAware ADS-B
Wed 08:59:12 PM 61.0580 -149.8560 322° Northwest 267 307 8,900 -1,200 Descending FlightAware ADS-B
Wed 08:59:42 PM 61.0870 -149.9030 322° Northwest 256 295 8,300 -1,091 Descending FlightAware ADS-B
Wed 09:00:07 PM 61.1020 -149.9430 308° West 256 295 7,900 -1,050 Descending FlightAware ADS-B
Wed 09:00:22 PM 61.1060 -149.9800 283° West 250 288 7,600 -1,333 Descending FlightAware ADS-B
Wed 09:00:52 PM 61.1050 -150.0650 269° West 244 281 6,900 -1,200 Descending FlightAware ADS-B
Wed 09:01:17 PM 61.1030 -150.1220 266° West 244 281 6,500 -1,200 Descending FlightAware ADS-B
Wed 09:01:47 PM 61.1020 -150.1960 268° West 254 292 5,800 -1,309 Descending FlightAware ADS-B
Wed 09:02:12 PM 61.1010 -150.2580 268° West 252 290 5,300 -1,091 Descending FlightAware ADS-B
Wed 09:02:42 PM 61.1010 -150.3290 270° West 239 275 4,800 -1,200 Descending FlightAware ADS-B
Wed 09:03:07 PM 61.1070 -150.3800 284° West 226 260 4,200 -1,200 Descending FlightAware ADS-B
Wed 09:03:22 PM 61.1190 -150.3970 326° Northwest 211 243 4,000 -720 Descending FlightAware ADS-B
Wed 09:03:32 PM 61.1290 -150.4010 349° North 203 234 3,900 -1,200 Descending FlightAware ADS-B
Wed 09:03:52 PM 61.1440 -150.3870 24° Northeast 194 223 3,400 -1,371 Descending FlightAware ADS-B
Wed 09:04:07 PM 61.1520 -150.3630 55° Northeast 194 223 3,100 -1,333 Descending FlightAware ADS-B
Wed 09:04:37 PM 61.1640 -150.3120 64° Northeast 192 221 2,400 -764 Descending FlightAware ADS-B
Wed 09:05:02 PM 61.1670 -150.2660 82° East 197 227 2,400 -120 Level FlightAware ADS-B
Wed 09:05:27 PM 61.1670 -150.2230 90° East 175 201 2,300 -646 Descending FlightAware ADS-B
Wed 09:06:07 PM 61.1670 -150.1610 90° East 154 177 1,700 -825 Descending FlightAware ADS-B
Wed 09:06:47 PM 61.1680 -150.1040 88° East 155 178 1,200 -831 Descending FlightAware ADS-B
Wed 09:07:12 PM 61.1680 -150.0650 90° East 153 176 800 -960 Descending FlightAware ADS-B

Login

Don't have an account? Register now (free) for customized features, flight alerts, and more!